New Hanover, Illinois
Current Conditions -  °F | °C
As of 8:53 PM on Wednesday 26 Nov 2014 (Local Time) from KCPS Reporting Station
Haze Haze  
Wind Chill: 33°   Ceiling: 1400
Heat Index: 33°   Visibility: 2mi
Dew Point: 32°   Wind: 0mph
Humidity: 96%   Direction: NA
Pressure: 30.1"   Gusts: NA
Location:  38.3034°N, 90.1358°W
Report Text: KCPS 270253Z 00000KT 2SM BR OVC014 01/00 A3010 RMK AO2 UPB37E46SNE27 SLP196 P0001 60004 T00060000 53017
Loading
Personal Weather Stations






























Interactive Weather Map New forecast layout! Learn more

10-Day Weather Forecast

Advertisements
Track Severe Weather on mobile